createdAt,value
2019-05-29T00:01:38.901Z,99.90
2019-05-29T00:04:08.154Z,99.90
2019-05-29T00:06:37.051Z,99.90
2019-05-29T00:09:08.107Z,99.90
2019-05-29T00:11:37.020Z,99.90
2019-05-29T00:14:21.706Z,99.90
2019-05-29T00:16:36.346Z,99.90
2019-05-29T00:19:06.848Z,99.90
2019-05-29T00:21:35.601Z,99.90
2019-05-29T00:24:04.450Z,99.90
2019-05-29T00:26:33.232Z,99.90
2019-05-29T00:29:01.987Z,99.90
2019-05-29T00:31:30.823Z,99.90
2019-05-29T00:33:59.638Z,99.90
2019-05-29T00:36:28.498Z,99.90
2019-05-29T00:38:57.435Z,99.90
2019-05-29T00:41:26.296Z,99.90
2019-05-29T00:43:55.147Z,99.90
2019-05-29T00:46:24.040Z,99.90
2019-05-29T00:48:52.759Z,99.90
2019-05-29T00:51:21.581Z,99.90
2019-05-29T00:53:50.356Z,99.90
2019-05-29T00:56:19.205Z,99.90
2019-05-29T00:58:48.043Z,99.90
2019-05-29T01:01:17.547Z,99.90
2019-05-29T01:03:46.485Z,99.90
2019-05-29T01:06:16.079Z,99.90
2019-05-29T01:08:45.017Z,99.90
2019-05-29T01:11:14.693Z,99.90
2019-05-29T01:13:43.648Z,99.90
2019-05-29T01:16:13.335Z,99.90
2019-05-29T01:18:42.327Z,99.90
2019-05-29T01:21:11.768Z,99.90
2019-05-29T01:23:40.612Z,99.90
2019-05-29T01:26:09.400Z,99.90
2019-05-29T01:28:38.221Z,99.90
2019-05-29T01:31:07.056Z,99.90
2019-05-29T01:33:35.884Z,99.90
2019-05-29T01:36:04.635Z,99.90
2019-05-29T01:38:33.506Z,99.90
2019-05-29T01:41:02.336Z,99.90
2019-05-29T01:43:31.152Z,99.90
2019-05-29T01:45:59.980Z,99.90
2019-05-29T01:48:28.828Z,99.90
2019-05-29T01:50:57.699Z,99.90
2019-05-29T01:53:26.460Z,99.90
2019-05-29T01:55:55.324Z,99.90
2019-05-29T01:58:24.225Z,99.90
2019-05-29T02:00:53.033Z,99.90
2019-05-29T02:03:22.003Z,99.90
2019-05-29T02:05:50.846Z,99.90
2019-05-29T02:08:20.063Z,99.90
2019-05-29T02:10:49.020Z,99.90
2019-05-29T02:13:17.890Z,99.90
2019-05-29T02:15:46.632Z,99.90
2019-05-29T02:18:16.708Z,99.90
2019-05-29T02:20:45.614Z,99.90
2019-05-29T02:23:14.479Z,99.90
2019-05-29T02:25:43.381Z,99.90
2019-05-29T02:28:12.165Z,99.90
2019-05-29T02:30:40.998Z,99.90
2019-05-29T02:33:09.843Z,99.90
2019-05-29T02:35:38.720Z,99.90
2019-05-29T02:38:07.515Z,99.90
2019-05-29T02:40:36.413Z,99.90
2019-05-29T02:43:05.209Z,99.90
2019-05-29T02:45:53.235Z,99.90
2019-05-29T02:48:04.435Z,99.90
2019-05-29T02:50:33.281Z,99.90
2019-05-29T02:53:02.121Z,99.90
2019-05-29T02:55:31.116Z,99.90
2019-05-29T02:57:59.990Z,99.90
2019-05-29T03:00:51.143Z,99.90
2019-05-29T03:03:21.598Z,99.90
2019-05-29T03:05:53.034Z,99.90
2019-05-29T03:08:22.405Z,99.90
2019-05-29T03:10:52.815Z,99.90
2019-05-29T03:13:23.147Z,99.90
2019-05-29T03:16:08.443Z,99.90
2019-05-29T03:18:23.996Z,99.90
2019-05-29T03:20:53.106Z,99.90
2019-05-29T03:23:21.803Z,99.90
2019-05-29T03:25:50.648Z,99.90
2019-05-29T03:28:19.443Z,99.90
2019-05-29T03:30:48.300Z,99.90
2019-05-29T03:33:17.126Z,99.90
2019-05-29T03:35:48.248Z,99.90
2019-05-29T03:38:16.637Z,99.90
2019-05-29T03:40:45.477Z,99.90
2019-05-29T03:43:14.316Z,99.90
2019-05-29T03:45:43.149Z,99.90
2019-05-29T03:48:11.988Z,99.90
2019-05-29T03:50:41.144Z,99.90
2019-05-29T03:53:10.005Z,99.90
2019-05-29T03:55:38.785Z,99.90
2019-05-29T03:58:07.633Z,99.90
2019-05-29T04:00:44.755Z,99.90
2019-05-29T04:03:06.992Z,99.90
2019-05-29T04:05:37.742Z,99.90
2019-05-29T04:08:06.205Z,99.90
2019-05-29T04:10:37.347Z,99.90
2019-05-29T04:13:05.524Z,99.90
2019-05-29T04:15:36.523Z,99.90
2019-05-29T04:18:06.567Z,99.90
2019-05-29T04:20:38.773Z,99.90
2019-05-29T04:23:08.235Z,99.90
2019-05-29T04:25:41.935Z,99.90
2019-05-29T04:28:09.209Z,99.90
2019-05-29T04:30:39.082Z,99.90
2019-05-29T04:33:08.305Z,99.90
2019-05-29T04:35:39.382Z,98.80
2019-05-29T04:38:07.705Z,99.60
2019-05-29T04:40:37.386Z,98.80
2019-05-29T04:43:07.113Z,98.60
2019-05-29T04:45:39.261Z,98.90
2019-05-29T04:48:06.476Z,99.30
2019-05-29T04:50:36.459Z,99.40
2019-05-29T04:53:05.731Z,98.60
2019-05-29T04:55:34.806Z,99.30
2019-05-29T04:58:03.820Z,99.40
2019-05-29T05:00:33.070Z,98.40
2019-05-29T05:03:02.040Z,98.70
2019-05-29T05:05:31.192Z,98.50
2019-05-29T05:08:00.232Z,98.00
2019-05-29T05:10:40.897Z,97.80
2019-05-29T05:13:10.162Z,97.50
2019-05-29T05:15:43.781Z,98.10
2019-05-29T05:18:12.583Z,98.90
2019-05-29T05:20:41.469Z,97.70
2019-05-29T05:23:10.254Z,98.40
2019-05-29T05:25:41.040Z,97.70
2019-05-29T05:28:10.068Z,97.50
2019-05-29T05:30:40.633Z,97.50
2019-05-29T05:33:09.817Z,97.40
2019-05-29T05:35:38.840Z,96.00
2019-05-29T05:38:07.847Z,95.90
2019-05-29T05:40:39.397Z,96.30
2019-05-29T05:43:21.025Z,96.40
2019-05-29T05:45:39.123Z,97.20
2019-05-29T05:48:08.082Z,95.80
2019-05-29T05:50:37.318Z,96.60
2019-05-29T05:53:06.174Z,95.50
2019-05-29T05:55:37.604Z,94.60
2019-05-29T05:58:06.574Z,94.00
2019-05-29T06:00:38.011Z,94.30
2019-05-29T06:03:07.501Z,93.90
2019-05-29T06:05:36.451Z,94.00
2019-05-29T06:08:05.355Z,94.10
2019-05-29T06:10:34.183Z,94.30
2019-05-29T06:13:03.347Z,95.20
2019-05-29T06:15:51.432Z,95.00
2019-05-29T06:18:21.963Z,94.00
2019-05-29T06:20:51.027Z,93.70
2019-05-29T06:23:19.868Z,94.00
2019-05-29T06:25:49.680Z,93.60
2019-05-29T06:28:18.502Z,92.80
2019-05-29T06:30:47.270Z,92.90
2019-05-29T06:33:17.336Z,93.40
2019-05-29T06:35:46.180Z,93.00
2019-05-29T06:38:15.082Z,93.40
2019-05-29T06:40:45.556Z,93.20
2019-05-29T06:43:22.565Z,92.10
2019-05-29T06:45:55.588Z,91.90
2019-05-29T06:48:42.544Z,91.60
2019-05-29T06:50:59.146Z,91.00
2019-05-29T06:53:27.969Z,91.10
2019-05-29T06:55:58.085Z,90.60
2019-05-29T06:58:27.316Z,90.00
2019-05-29T07:00:56.259Z,90.20
2019-05-29T07:03:26.072Z,90.50
2019-05-29T07:05:54.920Z,89.70
2019-05-29T07:08:37.400Z,85.80
2019-05-29T07:10:54.294Z,88.00
2019-05-29T07:13:23.108Z,86.10
2019-05-29T07:15:51.985Z,85.60
2019-05-29T07:18:20.806Z,85.50
2019-05-29T07:20:49.660Z,85.90
2019-05-29T07:23:18.557Z,86.20
2019-05-29T07:25:47.532Z,85.80
2019-05-29T07:28:16.455Z,84.20
2019-05-29T07:30:53.626Z,86.00
2019-05-29T07:33:15.740Z,85.80
2019-05-29T07:35:45.697Z,85.40
2019-05-29T07:38:14.682Z,85.60
2019-05-29T07:40:47.166Z,82.70
2019-05-29T07:43:13.920Z,82.80
2019-05-29T07:45:43.955Z,81.10
2019-05-29T07:48:14.037Z,81.80
2019-05-29T07:50:43.962Z,79.40
2019-05-29T07:53:12.965Z,74.90
2019-05-29T07:55:42.574Z,76.40
2019-05-29T07:58:11.517Z,73.70
2019-05-29T08:01:01.291Z,71.30
2019-05-29T08:03:10.854Z,73.10
2019-05-29T08:05:41.083Z,68.50
2019-05-29T08:08:10.339Z,65.30
2019-05-29T08:10:39.973Z,67.60
2019-05-29T08:13:10.501Z,61.90
2019-05-29T08:15:54.153Z,62.00
2019-05-29T08:18:09.975Z,63.40
2019-05-29T08:20:39.763Z,60.40
2019-05-29T08:23:08.739Z,65.70
2019-05-29T08:25:37.564Z,62.30
2019-05-29T08:28:06.418Z,61.10
2019-05-29T08:30:35.314Z,60.50
2019-05-29T08:33:04.066Z,59.50
2019-05-29T08:35:34.223Z,62.60
2019-05-29T08:38:03.041Z,60.80
2019-05-29T08:40:31.902Z,57.90
2019-05-29T08:43:00.762Z,58.90
2019-05-29T08:45:29.744Z,57.20
2019-05-29T08:47:59.166Z,57.70
2019-05-29T08:50:27.992Z,57.70
2019-05-29T08:52:56.876Z,59.10
2019-05-29T08:55:25.815Z,57.60
2019-05-29T08:57:54.734Z,58.50
2019-05-29T09:00:23.581Z,57.60
2019-05-29T09:02:52.802Z,57.80
2019-05-29T09:05:22.012Z,57.70
2019-05-29T09:07:52.187Z,55.20
2019-05-29T09:10:21.284Z,58.10
2019-05-29T09:13:03.422Z,57.60
2019-05-29T09:15:21.717Z,56.60
2019-05-29T09:17:51.028Z,57.50
2019-05-29T09:20:32.123Z,57.40
2019-05-29T09:22:50.560Z,57.10
2019-05-29T09:25:19.302Z,56.10
2019-05-29T09:27:48.206Z,57.40
2019-05-29T09:30:18.739Z,55.30
2019-05-29T09:32:50.852Z,52.90
2019-05-29T09:35:19.827Z,52.70
2019-05-29T09:37:48.936Z,51.70
2019-05-29T09:40:19.013Z,53.80
2019-05-29T09:42:48.192Z,54.20
2019-05-29T09:45:17.957Z,55.90
2019-05-29T09:47:47.175Z,56.00
2019-05-29T09:50:17.440Z,54.80
2019-05-29T09:52:49.927Z,54.10
2019-05-29T09:55:20.419Z,54.60
2019-05-29T09:57:49.249Z,52.30
2019-05-29T10:00:18.645Z,50.50
2019-05-29T10:02:47.496Z,47.50
2019-05-29T10:05:16.891Z,52.50
2019-05-29T10:07:45.741Z,53.30
2019-05-29T10:10:16.679Z,50.60
2019-05-29T10:12:45.530Z,50.90
2019-05-29T10:15:15.324Z,49.40
2019-05-29T10:17:44.280Z,50.20
2019-05-29T10:20:14.874Z,48.50
2019-05-29T10:22:43.986Z,48.80
2019-05-29T10:25:14.919Z,44.10
2019-05-29T10:27:43.786Z,49.90
2019-05-29T10:30:14.300Z,53.20
2019-05-29T10:32:44.520Z,53.70
2019-05-29T10:35:13.888Z,53.60
2019-05-29T10:37:42.933Z,52.60
2019-05-29T10:40:12.511Z,52.10
2019-05-29T10:42:41.387Z,47.20
2019-05-29T10:45:10.677Z,44.00
2019-05-29T10:47:39.547Z,47.40
2019-05-29T10:50:09.564Z,49.10
2019-05-29T10:52:38.453Z,46.30
2019-05-29T10:55:08.330Z,52.60
2019-05-29T10:57:37.126Z,52.60
2019-05-29T11:00:09.499Z,52.90
2019-05-29T11:02:38.298Z,54.20
2019-05-29T11:05:07.208Z,51.70
2019-05-29T11:07:36.079Z,46.30
2019-05-29T11:10:07.415Z,44.30
2019-05-29T11:12:39.337Z,40.70
2019-05-29T11:15:20.870Z,41.70
2019-05-29T11:17:38.111Z,43.20
2019-05-29T11:20:09.174Z,42.10
2019-05-29T11:22:39.837Z,38.60
2019-05-29T11:25:22.398Z,37.20
2019-05-29T11:27:48.461Z,35.80
2019-05-29T11:30:18.448Z,40.30
2019-05-29T11:32:49.902Z,48.30
2019-05-29T11:35:23.089Z,48.70
2019-05-29T11:37:54.644Z,43.80
2019-05-29T11:40:25.668Z,44.50
2019-05-29T11:42:59.145Z,41.70
2019-05-29T11:45:29.866Z,43.30
2019-05-29T11:48:05.240Z,44.70
2019-05-29T11:50:34.558Z,43.00
2019-05-29T11:53:04.074Z,40.30
2019-05-29T11:55:34.303Z,41.10
2019-05-29T11:58:06.500Z,43.50
2019-05-29T12:00:38.149Z,47.50
2019-05-29T12:03:07.183Z,50.90
2019-05-29T12:05:36.411Z,48.30
2019-05-29T12:08:06.091Z,44.80
2019-05-29T12:10:35.425Z,47.40
2019-05-29T12:13:07.659Z,43.90
2019-05-29T12:15:38.284Z,43.50
2019-05-29T12:18:22.662Z,48.30
2019-05-29T12:20:47.891Z,48.50
2019-05-29T12:23:25.698Z,48.40
2019-05-29T12:25:48.826Z,50.00
2019-05-29T12:28:17.984Z,53.50
2019-05-29T12:30:47.250Z,57.90
2019-05-29T12:33:17.210Z,57.90
2019-05-29T12:35:50.319Z,58.30
2019-05-29T12:38:21.075Z,58.20
2019-05-29T12:40:53.557Z,60.80
2019-05-29T12:43:27.634Z,61.60
2019-05-29T12:45:57.609Z,67.40
2019-05-29T12:48:26.700Z,63.80
2019-05-29T12:51:00.174Z,65.90
2019-05-29T12:53:31.266Z,65.40
2019-05-29T12:56:02.577Z,59.70
2019-05-29T12:58:31.449Z,59.10
2019-05-29T13:03:37.618Z,54.60
2019-05-29T13:06:06.496Z,54.30
2019-05-29T13:08:37.229Z,55.10
2019-05-29T13:11:07.547Z,55.20
2019-05-29T13:13:36.812Z,57.10
2019-05-29T13:16:08.934Z,57.30
2019-05-29T13:18:38.727Z,55.80
2019-05-29T13:21:07.535Z,57.80
2019-05-29T13:23:44.652Z,57.50
2019-05-29T13:26:09.467Z,56.80
2019-05-29T13:28:43.684Z,57.30
2019-05-29T13:31:15.735Z,57.10
2019-05-29T13:33:44.991Z,57.40
2019-05-29T13:36:16.111Z,58.40
2019-05-29T13:38:51.636Z,57.60
2019-05-29T13:41:20.415Z,58.90
2019-05-29T13:44:02.979Z,58.70
2019-05-29T13:46:32.854Z,60.00
2019-05-29T13:49:07.225Z,58.20
2019-05-29T13:51:36.846Z,57.80
2019-05-29T13:54:14.005Z,63.80
2019-05-29T13:56:37.482Z,60.00
2019-05-29T13:59:10.574Z,60.40
2019-05-29T14:01:42.025Z,62.50
2019-05-29T14:04:12.153Z,59.30
2019-05-29T14:06:53.030Z,61.60
2019-05-29T14:09:26.795Z,58.90
2019-05-29T14:11:58.945Z,56.80
2019-05-29T14:14:34.755Z,57.80
2019-05-29T14:17:08.657Z,57.40
2019-05-29T14:19:40.691Z,56.20
2019-05-29T14:22:14.866Z,56.10
2019-05-29T14:24:48.000Z,56.10
2019-05-29T14:27:18.992Z,57.50
2019-05-29T14:29:50.896Z,57.20
2019-05-29T14:32:21.380Z,55.70
2019-05-29T14:34:51.776Z,56.40
2019-05-29T14:37:21.372Z,57.00
2019-05-29T14:39:50.879Z,55.70
2019-05-29T14:42:24.850Z,55.10
2019-05-29T14:44:54.552Z,55.10
2019-05-29T14:47:23.944Z,54.60
2019-05-29T14:49:57.999Z,55.00
2019-05-29T14:52:29.385Z,52.80
2019-05-29T14:54:59.128Z,55.00
2019-05-29T14:57:30.377Z,55.20
2019-05-29T15:00:01.058Z,54.90
2019-05-29T15:02:31.863Z,54.10
2019-05-29T15:05:17.841Z,55.10
2019-05-29T15:07:48.771Z,55.70
2019-05-29T15:10:26.967Z,55.70
2019-05-29T15:12:58.163Z,55.90
2019-05-29T15:15:26.573Z,55.40
2019-05-29T15:18:00.727Z,55.10
2019-05-29T15:20:32.650Z,48.60
2019-05-29T15:23:05.291Z,46.60
2019-05-29T15:25:40.764Z,45.20
2019-05-29T15:28:13.623Z,45.40
2019-05-29T15:30:42.190Z,44.10
2019-05-29T15:33:12.587Z,44.70
2019-05-29T15:35:42.112Z,45.10
2019-05-29T15:38:12.829Z,49.30
2019-05-29T15:40:42.431Z,54.20
2019-05-29T15:43:12.852Z,55.90
2019-05-29T15:45:42.928Z,54.80
2019-05-29T15:48:13.542Z,53.40
2019-05-29T15:50:42.949Z,53.20
2019-05-29T15:53:15.205Z,54.80
2019-05-29T15:55:45.723Z,54.50
2019-05-29T16:01:05.469Z,54.10
2019-05-29T16:03:50.507Z,56.00
2019-05-29T16:06:36.373Z,52.90
2019-05-29T16:09:14.328Z,54.00
2019-05-29T16:11:43.428Z,54.00
2019-05-29T16:14:16.710Z,55.70
2019-05-29T16:16:46.551Z,54.00
2019-05-29T16:19:16.476Z,56.00
2019-05-29T16:21:45.649Z,56.00
2019-05-29T16:24:16.806Z,55.50
2019-05-29T16:26:46.180Z,54.20
2019-05-29T16:29:17.326Z,55.10
2019-05-29T16:31:47.361Z,55.70
2019-05-29T16:34:18.911Z,55.00
2019-05-29T16:36:47.198Z,52.20
2019-05-29T16:39:19.212Z,54.70
2019-05-29T16:41:49.571Z,55.10
2019-05-29T16:44:24.368Z,55.50
2019-05-29T16:46:52.308Z,56.30
2019-05-29T16:49:21.382Z,55.20
2019-05-29T16:51:50.360Z,56.20
2019-05-29T16:54:23.200Z,56.00
2019-05-29T16:57:01.545Z,55.90
2019-05-29T16:59:31.189Z,55.60
2019-05-29T17:02:07.399Z,55.50
2019-05-29T17:04:37.786Z,55.40
2019-05-29T17:07:10.944Z,55.50
2019-05-29T17:09:40.882Z,55.50
2019-05-29T17:12:10.836Z,55.40
2019-05-29T17:14:40.267Z,56.20
2019-05-29T17:17:12.489Z,57.30
2019-05-29T17:19:42.466Z,56.40
2019-05-29T17:22:16.473Z,55.90
2019-05-29T17:24:46.821Z,56.50
2019-05-29T17:27:21.240Z,55.80
2019-05-29T17:29:50.937Z,54.50
2019-05-29T17:32:21.170Z,55.70
2019-05-29T17:34:53.197Z,59.70
2019-05-29T17:37:23.154Z,56.90
2019-05-29T17:39:53.093Z,60.10
2019-05-29T17:42:24.494Z,57.60
2019-05-29T17:44:55.966Z,57.60
2019-05-29T17:47:25.746Z,57.10
2019-05-29T17:49:54.676Z,57.00
2019-05-29T17:52:25.961Z,56.10
2019-05-29T17:54:56.172Z,56.80
2019-05-29T17:57:26.135Z,55.80
2019-05-29T17:59:55.359Z,56.10
2019-05-29T18:02:27.761Z,56.10
2019-05-29T18:07:40.169Z,57.10
2019-05-29T18:10:10.160Z,58.00
2019-05-29T18:12:40.542Z,55.90
2019-05-29T18:15:11.153Z,56.20
2019-05-29T18:17:44.339Z,56.80
2019-05-29T18:20:17.878Z,57.10
2019-05-29T18:22:49.172Z,57.60
2019-05-29T18:25:21.924Z,57.50
2019-05-29T18:27:54.306Z,56.50
2019-05-29T18:30:24.400Z,57.00
2019-05-29T18:32:54.295Z,56.50
2019-05-29T18:35:24.982Z,56.90
2019-05-29T18:37:54.106Z,56.60
2019-05-29T18:40:26.402Z,59.10
2019-05-29T18:42:55.727Z,56.10
2019-05-29T18:45:27.734Z,56.20
2019-05-29T18:48:00.314Z,57.10
2019-05-29T18:50:29.665Z,56.40
2019-05-29T18:53:02.258Z,55.60
2019-05-29T18:55:30.644Z,56.30
2019-05-29T18:58:02.076Z,56.80
2019-05-29T19:00:37.873Z,56.20
2019-05-29T19:03:07.734Z,55.90
2019-05-29T19:05:39.459Z,56.30
2019-05-29T19:08:13.480Z,56.60
2019-05-29T19:10:43.696Z,56.90
2019-05-29T19:13:14.668Z,57.30
2019-05-29T19:15:47.025Z,57.10
2019-05-29T19:18:21.992Z,57.40
2019-05-29T19:20:51.850Z,57.70
2019-05-29T19:23:24.654Z,58.10
2019-05-29T19:25:53.665Z,57.90
2019-05-29T19:28:25.235Z,58.20
2019-05-29T19:31:14.835Z,57.10
2019-05-29T19:33:43.674Z,57.10
2019-05-29T19:36:15.663Z,60.20
2019-05-29T19:38:44.493Z,57.00
2019-05-29T19:41:13.328Z,56.80
2019-05-29T19:43:42.528Z,56.70
2019-05-29T19:46:15.791Z,57.00
2019-05-29T19:48:44.997Z,57.40
2019-05-29T19:51:16.807Z,57.50
2019-05-29T19:53:45.669Z,58.70
2019-05-29T19:56:16.199Z,58.40
2019-05-29T19:58:46.679Z,57.90
2019-05-29T20:01:30.078Z,60.50
2019-05-29T20:03:45.923Z,60.00
2019-05-29T20:06:16.162Z,59.30
2019-05-29T20:08:45.052Z,59.50
2019-05-29T20:11:13.907Z,58.80
2019-05-29T20:13:42.725Z,60.90
2019-05-29T20:16:11.492Z,62.20
2019-05-29T20:18:40.331Z,59.50
2019-05-29T20:21:09.139Z,59.40
2019-05-29T20:23:38.800Z,59.50
2019-05-29T20:26:07.753Z,60.20
2019-05-29T20:28:36.646Z,60.00
2019-05-29T20:31:06.225Z,65.20
2019-05-29T20:33:35.206Z,62.60
2019-05-29T20:36:04.466Z,63.20
2019-05-29T20:38:35.061Z,63.40
2019-05-29T20:41:04.120Z,63.50
2019-05-29T20:43:33.502Z,64.20
2019-05-29T20:46:07.126Z,64.60
2019-05-29T20:48:34.592Z,64.90
2019-05-29T20:51:06.042Z,65.10
2019-05-29T20:53:35.393Z,65.40
2019-05-29T20:56:07.459Z,66.30
2019-05-29T20:58:37.699Z,67.90
2019-05-29T21:01:07.217Z,70.10
2019-05-29T21:03:36.547Z,72.70
2019-05-29T21:06:06.040Z,70.80
2019-05-29T21:08:34.990Z,70.10
2019-05-29T21:11:04.236Z,68.00
2019-05-29T21:13:33.306Z,67.90
2019-05-29T21:16:02.436Z,72.30
2019-05-29T21:18:31.386Z,70.80
2019-05-29T21:21:00.285Z,72.30
2019-05-29T21:23:29.185Z,71.90
2019-05-29T21:25:58.025Z,71.40
2019-05-29T21:28:39.332Z,71.00
2019-05-29T21:30:58.825Z,74.80
2019-05-29T21:33:28.793Z,74.20
2019-05-29T21:35:57.647Z,73.20
2019-05-29T21:38:26.404Z,75.00
2019-05-29T21:40:55.690Z,74.30
2019-05-29T21:43:24.489Z,76.40
2019-05-29T21:45:53.316Z,75.60
2019-05-29T21:48:22.178Z,74.90
2019-05-29T21:50:51.028Z,74.70
2019-05-29T21:53:19.886Z,76.30
2019-05-29T21:55:50.292Z,75.30
2019-05-29T21:58:19.138Z,76.60
2019-05-29T22:00:51.409Z,76.40
2019-05-29T22:03:20.308Z,77.10
2019-05-29T22:05:49.384Z,77.40
2019-05-29T22:08:18.255Z,78.30
2019-05-29T22:10:47.517Z,77.60
2019-05-29T22:13:16.353Z,78.70
2019-05-29T22:15:45.162Z,77.90
2019-05-29T22:18:14.034Z,80.00
2019-05-29T22:20:42.877Z,81.20
2019-05-29T22:23:11.668Z,81.10
2019-05-29T22:25:40.588Z,81.80
2019-05-29T22:28:09.419Z,81.40
2019-05-29T22:30:38.242Z,83.00
2019-05-29T22:33:07.413Z,82.10
2019-05-29T22:35:36.312Z,83.70
2019-05-29T22:38:05.145Z,83.50
2019-05-29T22:40:33.977Z,84.50
2019-05-29T22:43:02.988Z,84.30
2019-05-29T22:45:31.789Z,84.70
2019-05-29T22:48:02.327Z,85.60
2019-05-29T22:50:31.307Z,86.40
2019-05-29T22:53:00.101Z,87.10
2019-05-29T22:55:28.872Z,86.10
2019-05-29T22:57:57.970Z,86.90
2019-05-29T23:00:26.752Z,87.30
2019-05-29T23:02:56.122Z,88.40
2019-05-29T23:05:25.120Z,87.80
2019-05-29T23:07:54.197Z,88.40
2019-05-29T23:10:23.088Z,88.80
2019-05-29T23:12:52.942Z,88.60
2019-05-29T23:15:22.224Z,89.50
2019-05-29T23:17:52.348Z,90.10
2019-05-29T23:20:21.321Z,90.30
2019-05-29T23:22:50.305Z,91.00
2019-05-29T23:25:19.141Z,90.60
2019-05-29T23:27:47.961Z,90.90
2019-05-29T23:30:16.878Z,91.10
2019-05-29T23:32:45.715Z,90.90
2019-05-29T23:35:14.533Z,91.00
2019-05-29T23:37:43.371Z,90.70
2019-05-29T23:40:12.617Z,90.40
2019-05-29T23:42:41.940Z,91.20
2019-05-29T23:45:11.743Z,91.40
2019-05-29T23:47:40.589Z,91.20
2019-05-29T23:50:10.508Z,91.40
2019-05-29T23:52:39.261Z,91.10
2019-05-29T23:55:08.296Z,91.50
2019-05-29T23:57:37.144Z,91.90
